createdAt,value
2022-08-08T00:00:41.059Z,0.75
2022-08-08T00:02:04.069Z,0.90
2022-08-08T00:03:37.838Z,0.63
2022-08-08T00:06:00.809Z,0.98
2022-08-08T00:07:51.198Z,0.95
2022-08-08T00:09:37.862Z,0.73
2022-08-08T00:11:47.070Z,0.80
2022-08-08T00:14:14.939Z,0.70
2022-08-08T00:15:56.134Z,0.77
2022-08-08T00:18:02.711Z,0.63
2022-08-08T00:19:51.421Z,0.80
2022-08-08T00:21:30.832Z,0.77
2022-08-08T00:23:47.330Z,0.82
2022-08-08T00:25:24.833Z,0.70
2022-08-08T00:27:07.017Z,0.75
2022-08-08T00:28:46.328Z,0.73
2022-08-08T00:30:18.719Z,0.90
2022-08-08T00:32:20.006Z,0.70
2022-08-08T00:34:20.320Z,0.90
2022-08-08T00:36:25.741Z,0.95
2022-08-08T00:38:51.964Z,0.73
2022-08-08T00:41:06.708Z,0.73
2022-08-08T00:42:59.347Z,0.80
2022-08-08T00:45:27.079Z,0.70
2022-08-08T00:47:36.919Z,0.88
2022-08-08T00:49:59.805Z,0.85
2022-08-08T00:51:57.922Z,0.75
2022-08-08T00:54:04.461Z,0.95
2022-08-08T00:56:01.443Z,0.98
2022-08-08T00:58:13.802Z,0.70
2022-08-08T01:00:06.634Z,0.80
2022-08-08T01:02:01.625Z,0.70
2022-08-08T01:04:02.154Z,0.82
2022-08-08T01:06:02.464Z,0.93
2022-08-08T01:07:56.992Z,0.70
2022-08-08T01:09:55.742Z,1.05
2022-08-08T01:11:54.088Z,0.90
2022-08-08T01:14:05.648Z,0.70
2022-08-08T01:16:01.748Z,0.80
2022-08-08T01:18:16.409Z,0.70
2022-08-08T01:20:33.676Z,0.70
2022-08-08T01:22:15.845Z,0.70
2022-08-08T01:23:55.342Z,0.65
2022-08-08T01:26:02.198Z,0.82
2022-08-08T01:28:20.693Z,0.90
2022-08-08T01:30:09.200Z,0.80
2022-08-08T01:32:17.398Z,0.90
2022-08-08T01:34:20.335Z,0.80
2022-08-08T01:36:18.834Z,1.00
2022-08-08T01:38:30.283Z,1.23
2022-08-08T01:40:21.258Z,0.85
2022-08-08T01:42:15.757Z,1.00
2022-08-08T01:43:57.062Z,0.75
2022-08-08T01:46:14.183Z,0.90
2022-08-08T01:48:31.085Z,0.80
2022-08-08T01:50:26.861Z,0.70
2022-08-08T01:53:07.233Z,0.90
2022-08-08T01:55:46.217Z,0.90
2022-08-08T01:56:46.930Z,0.80
2022-08-08T01:58:49.914Z,0.70
2022-08-08T02:01:08.873Z,0.80
2022-08-08T02:03:55.668Z,0.80
2022-08-08T02:05:33.966Z,0.80
2022-08-08T02:07:53.203Z,0.68
2022-08-08T02:10:01.478Z,0.82
2022-08-08T02:11:52.865Z,0.85
2022-08-08T02:13:54.448Z,0.80
2022-08-08T02:15:56.775Z,0.90
2022-08-08T02:17:43.360Z,0.80
2022-08-08T02:20:07.285Z,0.80
2022-08-08T02:21:54.327Z,1.10
2022-08-08T02:23:35.399Z,1.10
2022-08-08T02:25:47.289Z,1.00
2022-08-08T02:27:38.670Z,1.00
2022-08-08T02:29:54.700Z,1.17
2022-08-08T02:32:05.279Z,0.95
2022-08-08T02:34:08.371Z,1.05
2022-08-08T02:36:03.916Z,0.98
2022-08-08T02:37:52.120Z,0.80
2022-08-08T02:40:00.301Z,1.08
2022-08-08T02:41:58.577Z,1.05
2022-08-08T02:44:35.055Z,0.80
2022-08-08T02:45:57.018Z,0.90
2022-08-08T02:48:09.126Z,0.93
2022-08-08T02:50:17.600Z,0.90
2022-08-08T02:52:32.646Z,0.93
2022-08-08T02:54:11.748Z,0.80
2022-08-08T02:56:08.902Z,0.80
2022-08-08T02:58:10.537Z,1.00
2022-08-08T03:00:31.258Z,0.90
2022-08-08T03:02:20.216Z,0.90
2022-08-08T03:05:05.203Z,0.73
2022-08-08T03:06:34.314Z,1.02
2022-08-08T03:08:31.622Z,1.10
2022-08-08T03:10:44.164Z,0.70
2022-08-08T03:13:01.497Z,0.85
2022-08-08T03:16:01.151Z,0.90
2022-08-08T03:17:05.436Z,0.90
2022-08-08T03:19:17.860Z,0.90
2022-08-08T03:22:38.502Z,0.90
2022-08-08T03:24:17.203Z,0.82
2022-08-08T03:25:52.765Z,0.90
2022-08-08T03:27:36.034Z,0.80
2022-08-08T03:29:20.887Z,0.93
2022-08-08T03:31:38.047Z,1.05
2022-08-08T03:33:55.386Z,1.27
2022-08-08T03:35:17.899Z,0.77
2022-08-08T03:36:51.988Z,1.05
2022-08-08T03:38:55.945Z,0.95
2022-08-08T03:40:30.297Z,1.00
2022-08-08T03:42:26.589Z,0.98
2022-08-08T03:43:59.976Z,1.10
2022-08-08T03:46:05.706Z,1.08
2022-08-08T03:47:25.759Z,1.00
2022-08-08T03:49:59.994Z,1.20
2022-08-08T03:51:11.280Z,1.10
2022-08-08T03:52:46.004Z,0.85
2022-08-08T03:54:51.630Z,1.10
2022-08-08T03:56:31.151Z,1.30
2022-08-08T03:58:35.041Z,1.10
2022-08-08T04:00:11.891Z,1.30
2022-08-08T04:02:13.578Z,1.30
2022-08-08T04:03:58.675Z,1.00
2022-08-08T04:05:37.853Z,1.20
2022-08-08T04:07:21.263Z,1.20
2022-08-08T04:08:53.280Z,1.02
2022-08-08T04:10:32.353Z,1.02
2022-08-08T04:12:06.685Z,1.20
2022-08-08T04:14:04.243Z,1.52
2022-08-08T04:15:54.562Z,1.08
2022-08-08T04:17:45.778Z,0.88
2022-08-08T04:21:05.108Z,1.00
2022-08-08T04:22:38.416Z,0.93
2022-08-08T04:24:18.912Z,1.00
2022-08-08T04:25:51.305Z,0.90
2022-08-08T04:28:03.676Z,0.95
2022-08-08T04:29:15.615Z,0.88
2022-08-08T04:30:48.944Z,1.08
2022-08-08T04:32:30.788Z,1.10
2022-08-08T04:34:06.799Z,0.90
2022-08-08T04:35:41.050Z,1.00
2022-08-08T04:37:31.710Z,0.90
2022-08-08T04:39:31.226Z,1.02
2022-08-08T04:42:33.866Z,0.90
2022-08-08T04:44:05.632Z,1.08
2022-08-08T04:45:37.381Z,0.90
2022-08-08T04:47:11.940Z,0.90
2022-08-08T04:48:44.895Z,0.90
2022-08-08T04:50:25.150Z,1.00
2022-08-08T04:52:01.812Z,1.02
2022-08-08T04:54:36.292Z,1.00
2022-08-08T04:57:11.190Z,1.23
2022-08-08T04:58:43.781Z,1.10
2022-08-08T05:00:19.571Z,0.90
2022-08-08T05:01:52.916Z,1.08
2022-08-08T05:04:10.101Z,1.15
2022-08-08T05:07:15.691Z,1.15
2022-08-08T05:08:51.751Z,0.93
2022-08-08T05:10:28.207Z,1.10
2022-08-08T05:12:00.662Z,1.15
2022-08-08T05:13:36.699Z,1.20
2022-08-08T05:16:47.887Z,1.00
2022-08-08T05:17:20.268Z,1.13
2022-08-08T05:18:54.064Z,1.60
2022-08-08T05:20:25.763Z,0.93
2022-08-08T05:22:00.005Z,1.10
2022-08-08T05:23:41.069Z,1.33
2022-08-08T05:25:13.867Z,1.30
2022-08-08T05:26:46.437Z,1.10
2022-08-08T05:28:48.455Z,1.30
2022-08-08T05:30:13.296Z,1.15
2022-08-08T05:32:04.608Z,1.48
2022-08-08T05:33:44.010Z,1.25
2022-08-08T05:35:26.070Z,1.38
2022-08-08T05:37:15.988Z,1.00
2022-08-08T05:38:53.379Z,1.40
2022-08-08T05:40:27.938Z,1.10
2022-08-08T05:42:01.637Z,1.25
2022-08-08T05:43:39.717Z,1.27
2022-08-08T05:45:42.803Z,1.48
2022-08-08T05:47:23.108Z,1.10
2022-08-08T05:48:55.503Z,1.40
2022-08-08T05:50:33.700Z,1.20
2022-08-08T05:52:06.465Z,1.13
2022-08-08T05:54:26.177Z,1.30
2022-08-08T05:56:10.123Z,1.38
2022-08-08T05:58:04.387Z,1.20
2022-08-08T05:59:59.766Z,1.10
2022-08-08T06:01:56.318Z,1.10
2022-08-08T06:03:24.915Z,1.08
2022-08-08T06:05:24.369Z,1.10
2022-08-08T06:07:01.585Z,1.20
2022-08-08T06:08:38.155Z,1.00
2022-08-08T06:10:24.734Z,1.10
2022-08-08T06:12:00.996Z,1.70
2022-08-08T06:13:36.394Z,1.50
2022-08-08T06:15:20.478Z,1.17
2022-08-08T06:17:03.616Z,1.13
2022-08-08T06:19:04.909Z,1.00
2022-08-08T06:20:41.351Z,1.23
2022-08-08T06:24:13.788Z,1.27
2022-08-08T06:26:42.859Z,1.20
2022-08-08T06:28:14.593Z,0.98
2022-08-08T06:30:02.157Z,1.00
2022-08-08T06:32:11.277Z,1.17
2022-08-08T06:34:25.706Z,0.88
2022-08-08T06:36:07.274Z,0.98
2022-08-08T06:37:56.054Z,0.90
2022-08-08T06:39:34.986Z,1.00
2022-08-08T06:41:13.423Z,0.80
2022-08-08T06:42:53.402Z,1.00
2022-08-08T06:44:30.337Z,1.00
2022-08-08T06:46:08.684Z,1.00
2022-08-08T06:47:52.511Z,0.93
2022-08-08T06:49:55.805Z,0.90
2022-08-08T06:51:31.194Z,0.95
2022-08-08T06:53:21.036Z,0.93
2022-08-08T06:55:01.065Z,1.00
2022-08-08T06:56:33.437Z,0.80
2022-08-08T06:58:07.102Z,0.70
2022-08-08T07:00:02.605Z,1.00
2022-08-08T07:02:26.451Z,0.70
2022-08-08T07:04:37.585Z,1.05
2022-08-08T07:06:01.578Z,0.88
2022-08-08T07:07:55.358Z,0.52
2022-08-08T07:09:45.706Z,0.80
2022-08-08T07:11:46.324Z,0.70
2022-08-08T07:13:33.090Z,0.85
2022-08-08T07:15:15.440Z,1.00
2022-08-08T07:17:14.587Z,0.77
2022-08-08T07:19:19.005Z,0.70
2022-08-08T07:22:56.271Z,0.80
2022-08-08T07:24:35.296Z,0.88
2022-08-08T07:26:10.463Z,0.70
2022-08-08T07:28:01.796Z,0.70
2022-08-08T07:30:00.975Z,0.70
2022-08-08T07:31:29.341Z,0.70
2022-08-08T07:33:11.677Z,0.90
2022-08-08T07:35:00.796Z,0.70
2022-08-08T07:36:47.969Z,0.80
2022-08-08T07:38:28.216Z,0.73
2022-08-08T07:40:07.238Z,0.90
2022-08-08T07:42:04.433Z,0.90
2022-08-08T07:43:37.101Z,1.10
2022-08-08T07:45:12.217Z,0.85
2022-08-08T07:46:47.520Z,0.63
2022-08-08T07:48:22.388Z,0.93
2022-08-08T07:49:57.484Z,1.00
2022-08-08T07:51:52.865Z,0.80
2022-08-08T07:54:02.167Z,0.77
2022-08-08T07:55:38.012Z,0.90
2022-08-08T07:57:36.994Z,1.05
2022-08-08T07:59:15.647Z,0.73
2022-08-08T08:01:00.068Z,0.60
2022-08-08T08:02:47.051Z,0.70
2022-08-08T08:04:26.063Z,0.70
2022-08-08T08:06:00.577Z,0.80
2022-08-08T08:07:42.174Z,0.70
2022-08-08T08:09:31.477Z,0.60
2022-08-08T08:11:21.312Z,0.80
2022-08-08T08:13:20.441Z,0.80
2022-08-08T08:15:07.018Z,0.60
2022-08-08T08:16:43.505Z,0.70
2022-08-08T08:18:31.636Z,0.50
2022-08-08T08:20:04.820Z,0.80
2022-08-08T08:21:57.104Z,0.77
2022-08-08T08:23:51.158Z,0.88
2022-08-08T08:25:43.576Z,0.90
2022-08-08T08:27:14.998Z,0.90
2022-08-08T08:28:51.115Z,0.95
2022-08-08T08:30:26.432Z,0.80
2022-08-08T08:32:03.429Z,0.88
2022-08-08T08:33:38.022Z,0.95
2022-08-08T08:35:15.465Z,0.80
2022-08-08T08:36:51.456Z,0.70
2022-08-08T08:38:26.692Z,0.90
2022-08-08T08:40:07.234Z,0.77
2022-08-08T08:41:48.622Z,0.80
2022-08-08T08:43:26.507Z,0.85
2022-08-08T08:45:01.222Z,0.73
2022-08-08T08:46:47.289Z,0.90
2022-08-08T08:48:20.437Z,0.70
2022-08-08T08:49:55.031Z,0.70
2022-08-08T08:51:28.824Z,0.60
2022-08-08T08:53:26.855Z,0.90
2022-08-08T08:55:08.613Z,0.80
2022-08-08T08:56:46.306Z,0.73
2022-08-08T08:58:28.814Z,0.63
2022-08-08T09:00:05.612Z,0.70
2022-08-08T09:01:45.400Z,0.70
2022-08-08T09:03:31.492Z,0.77
2022-08-08T09:05:28.981Z,0.60
2022-08-08T09:07:18.713Z,0.80
2022-08-08T09:09:25.812Z,0.70
2022-08-08T09:11:07.049Z,0.70
2022-08-08T09:12:45.307Z,0.63
2022-08-08T09:14:22.776Z,0.90
2022-08-08T09:16:03.537Z,0.88
2022-08-08T09:17:41.896Z,1.05
2022-08-08T09:21:56.133Z,0.70
2022-08-08T09:22:02.951Z,1.00
2022-08-08T09:23:11.782Z,1.10
2022-08-08T09:24:51.238Z,1.00
2022-08-08T09:26:47.207Z,0.95
2022-08-08T09:28:35.435Z,0.80
2022-08-08T09:30:17.183Z,0.85
2022-08-08T09:31:56.915Z,0.85
2022-08-08T09:34:06.139Z,0.70
2022-08-08T09:35:32.144Z,0.93
2022-08-08T09:37:57.180Z,1.10
2022-08-08T09:39:00.336Z,0.90
2022-08-08T09:40:45.550Z,0.70
2022-08-08T09:42:29.098Z,0.90
2022-08-08T09:44:13.093Z,0.80
2022-08-08T09:46:03.895Z,0.90
2022-08-08T09:48:03.021Z,0.85
2022-08-08T09:49:42.640Z,0.80
2022-08-08T09:51:26.946Z,0.80
2022-08-08T09:53:23.366Z,0.63
2022-08-08T09:54:55.152Z,0.70
2022-08-08T09:56:33.759Z,0.75
2022-08-08T09:58:27.723Z,0.65
2022-08-08T10:00:37.393Z,0.90
2022-08-08T10:02:12.888Z,0.70
2022-08-08T10:03:56.090Z,0.82
2022-08-08T10:05:34.819Z,0.80
2022-08-08T10:07:09.564Z,0.70
2022-08-08T10:08:52.203Z,0.90
2022-08-08T10:10:36.773Z,0.63
2022-08-08T10:12:28.147Z,0.90
2022-08-08T10:14:06.121Z,1.10
2022-08-08T10:15:39.265Z,0.90
2022-08-08T10:17:56.424Z,0.75
2022-08-08T10:19:07.811Z,0.80
2022-08-08T10:20:51.268Z,0.70
2022-08-08T10:22:35.920Z,0.77
2022-08-08T10:24:12.167Z,0.60
2022-08-08T10:26:03.279Z,0.65
2022-08-08T10:27:42.906Z,0.70
2022-08-08T10:29:22.807Z,0.60
2022-08-08T10:31:01.194Z,1.08
2022-08-08T10:32:38.218Z,0.80
2022-08-08T10:34:19.227Z,0.73
2022-08-08T10:36:07.970Z,0.70
2022-08-08T10:37:55.161Z,1.10
2022-08-08T10:39:42.913Z,1.05
2022-08-08T10:41:17.356Z,0.70
2022-08-08T10:43:10.844Z,0.73
2022-08-08T10:44:43.121Z,0.80
2022-08-08T10:46:30.116Z,0.90
2022-08-08T10:48:02.144Z,0.85
2022-08-08T10:50:01.403Z,0.70
2022-08-08T10:51:47.604Z,0.77
2022-08-08T10:53:39.278Z,0.73
2022-08-08T10:55:41.116Z,0.80
2022-08-08T10:57:27.584Z,0.70
2022-08-08T10:59:10.171Z,0.80
2022-08-08T11:00:48.688Z,1.00
2022-08-08T11:02:34.500Z,0.70
2022-08-08T11:04:10.378Z,0.52
2022-08-08T11:05:51.663Z,0.70
2022-08-08T11:08:31.361Z,0.60
2022-08-08T11:09:26.535Z,0.60
2022-08-08T11:11:59.601Z,0.70
2022-08-08T11:13:27.100Z,0.60
2022-08-08T11:15:02.282Z,0.70
2022-08-08T11:16:42.469Z,0.70
2022-08-08T11:18:19.581Z,0.40
2022-08-08T11:19:52.643Z,0.55
2022-08-08T11:21:24.775Z,0.70
2022-08-08T11:23:08.363Z,0.60
2022-08-08T11:24:42.722Z,0.80
2022-08-08T11:26:19.146Z,0.60
2022-08-08T11:27:54.638Z,0.90
2022-08-08T11:29:50.698Z,0.70
2022-08-08T11:31:25.420Z,0.50
2022-08-08T11:33:05.189Z,0.82
2022-08-08T11:35:24.439Z,0.80
2022-08-08T11:36:43.898Z,0.70
2022-08-08T11:38:35.183Z,0.60
2022-08-08T11:40:09.928Z,0.80
2022-08-08T11:41:43.157Z,0.70
2022-08-08T11:43:16.852Z,0.70
2022-08-08T11:44:49.180Z,0.60
2022-08-08T11:46:25.701Z,0.70
2022-08-08T11:48:04.615Z,0.63
2022-08-08T11:49:37.862Z,0.70
2022-08-08T11:51:38.564Z,0.77
2022-08-08T11:53:06.357Z,0.70
2022-08-08T11:54:46.483Z,0.50
2022-08-08T11:56:21.123Z,0.70
2022-08-08T11:58:06.777Z,0.70
2022-08-08T11:59:58.252Z,0.70
2022-08-08T12:01:43.795Z,0.60
2022-08-08T12:03:21.004Z,0.65
2022-08-08T12:05:07.653Z,0.73
2022-08-08T12:06:40.795Z,0.80
2022-08-08T12:08:16.434Z,0.65
2022-08-08T12:09:59.286Z,0.70
2022-08-08T12:11:39.807Z,0.73
2022-08-08T12:13:15.510Z,0.75
2022-08-08T12:15:00.142Z,0.70
2022-08-08T12:16:39.597Z,0.73
2022-08-08T12:18:25.369Z,0.50
2022-08-08T12:19:57.476Z,0.60
2022-08-08T12:21:59.669Z,0.65
2022-08-08T12:23:43.636Z,0.60
2022-08-08T12:25:30.119Z,0.60
2022-08-08T12:27:03.394Z,0.50
2022-08-08T12:28:39.262Z,0.80
2022-08-08T12:30:18.444Z,0.68
2022-08-08T12:32:04.944Z,0.80
2022-08-08T12:34:03.785Z,0.60
2022-08-08T12:35:39.904Z,0.60
2022-08-08T12:37:19.548Z,0.50
2022-08-08T12:38:55.511Z,0.60
2022-08-08T12:40:54.772Z,0.43
2022-08-08T12:42:33.527Z,0.60
2022-08-08T12:44:10.551Z,0.60
2022-08-08T12:45:58.327Z,0.70
2022-08-08T12:47:58.625Z,0.52
2022-08-08T12:49:45.311Z,0.85
2022-08-08T12:52:54.574Z,0.70
2022-08-08T12:54:36.316Z,0.57
2022-08-08T12:56:19.281Z,0.80
2022-08-08T12:57:56.578Z,0.57
2022-08-08T12:59:44.867Z,0.88
2022-08-08T13:01:37.571Z,0.50
2022-08-08T13:03:09.488Z,0.70
2022-08-08T13:04:51.140Z,0.60
2022-08-08T13:06:23.015Z,0.75
2022-08-08T13:08:03.740Z,0.60
2022-08-08T13:10:02.077Z,0.88
2022-08-08T13:12:26.968Z,0.70
2022-08-08T13:13:36.774Z,0.70
2022-08-08T13:15:14.476Z,0.70
2022-08-08T13:16:49.309Z,0.77
2022-08-08T13:18:27.367Z,0.60
2022-08-08T13:20:06.515Z,0.80
2022-08-08T13:21:53.730Z,0.70
2022-08-08T13:23:41.749Z,0.80
2022-08-08T13:25:22.230Z,0.80
2022-08-08T13:27:04.899Z,0.68
2022-08-08T13:28:42.127Z,0.70
2022-08-08T13:30:20.844Z,0.70
2022-08-08T13:32:04.817Z,0.70
2022-08-08T13:33:42.103Z,0.75
2022-08-08T13:35:24.783Z,1.15
2022-08-08T13:37:01.577Z,0.70
2022-08-08T13:38:37.312Z,0.80
2022-08-08T13:40:11.939Z,0.70
2022-08-08T13:41:56.993Z,0.63
2022-08-08T13:43:33.493Z,0.90
2022-08-08T13:45:05.695Z,1.10
2022-08-08T13:46:59.933Z,0.65
2022-08-08T13:48:31.773Z,0.80
2022-08-08T13:50:35.789Z,0.73
2022-08-08T13:52:03.015Z,0.60
2022-08-08T13:53:40.501Z,0.50
2022-08-08T13:55:36.263Z,0.60
2022-08-08T13:57:16.267Z,0.80
2022-08-08T13:58:57.904Z,1.15
2022-08-08T14:00:39.656Z,0.80
2022-08-08T14:02:33.267Z,0.90
2022-08-08T14:04:05.287Z,0.60
2022-08-08T14:06:00.579Z,0.70
2022-08-08T14:07:33.411Z,0.82
2022-08-08T14:09:24.550Z,0.70
2022-08-08T14:11:01.808Z,0.70
2022-08-08T14:12:36.107Z,0.60
2022-08-08T14:14:09.157Z,0.70
2022-08-08T14:15:46.362Z,0.70
2022-08-08T14:17:58.471Z,1.10
2022-08-08T14:19:17.693Z,0.70
2022-08-08T14:21:08.093Z,0.90
2022-08-08T14:22:50.085Z,0.77
2022-08-08T14:24:32.422Z,0.80
2022-08-08T14:26:10.801Z,0.70
2022-08-08T14:27:43.225Z,0.60
2022-08-08T14:29:31.570Z,0.63
2022-08-08T14:31:23.891Z,0.70
2022-08-08T14:33:15.200Z,0.80
2022-08-08T14:34:55.687Z,0.60
2022-08-08T14:36:35.600Z,0.70
2022-08-08T14:38:34.646Z,0.80
2022-08-08T14:40:05.660Z,0.60
2022-08-08T14:41:53.489Z,0.80
2022-08-08T14:44:02.641Z,0.60
2022-08-08T14:45:33.065Z,0.70
2022-08-08T14:47:21.391Z,0.70
2022-08-08T14:48:58.957Z,0.80
2022-08-08T14:50:39.093Z,0.70
2022-08-08T14:52:11.515Z,0.70
2022-08-08T14:53:55.216Z,0.77
2022-08-08T14:55:41.101Z,0.70
2022-08-08T14:57:16.200Z,0.70
2022-08-08T14:58:48.322Z,0.65
2022-08-08T15:00:21.722Z,0.88
2022-08-08T15:01:53.401Z,0.75
2022-08-08T15:03:25.785Z,0.70
2022-08-08T15:04:57.594Z,0.60
2022-08-08T15:06:44.395Z,0.50
2022-08-08T15:08:22.080Z,0.60
2022-08-08T15:10:05.854Z,0.50
2022-08-08T15:11:46.561Z,0.60
2022-08-08T15:13:25.388Z,0.70
2022-08-08T15:15:09.361Z,0.68
2022-08-08T15:16:44.232Z,0.65
2022-08-08T15:18:16.206Z,0.70
2022-08-08T15:19:52.348Z,0.82
2022-08-08T15:21:27.823Z,0.80
2022-08-08T15:23:02.427Z,0.82
2022-08-08T15:24:34.648Z,0.68
2022-08-08T15:26:10.850Z,0.65
2022-08-08T15:28:03.673Z,0.65
2022-08-08T15:29:36.635Z,0.80
2022-08-08T15:31:08.777Z,0.88
2022-08-08T15:32:41.151Z,0.82
2022-08-08T15:34:29.877Z,0.70
2022-08-08T15:36:03.907Z,0.80
2022-08-08T15:37:35.555Z,0.80
2022-08-08T15:39:07.168Z,0.90
2022-08-08T15:40:40.325Z,0.70
2022-08-08T15:42:31.836Z,0.68
2022-08-08T15:44:13.131Z,0.75
2022-08-08T15:45:48.928Z,0.60
2022-08-08T15:47:22.455Z,0.88
2022-08-08T15:48:54.368Z,0.77
2022-08-08T15:50:46.047Z,0.77
2022-08-08T15:52:21.594Z,0.70
2022-08-08T15:53:53.282Z,0.60
2022-08-08T15:55:27.275Z,1.08
2022-08-08T15:56:59.782Z,0.82
2022-08-08T15:58:31.781Z,0.80
2022-08-08T16:00:27.390Z,0.88
2022-08-08T16:02:00.467Z,0.63
2022-08-08T16:03:32.571Z,0.63
2022-08-08T16:05:13.556Z,0.60
2022-08-08T16:06:47.615Z,1.02
2022-08-08T16:08:20.247Z,0.60
2022-08-08T16:13:09.628Z,0.70
2022-08-08T16:13:10.234Z,0.68
2022-08-08T16:13:45.287Z,0.85
2022-08-08T16:15:18.269Z,0.90
2022-08-08T16:16:50.505Z,1.00
2022-08-08T16:18:22.251Z,0.60
2022-08-08T16:19:59.823Z,0.80
2022-08-08T16:21:33.815Z,0.70
2022-08-08T16:23:05.427Z,0.70
2022-08-08T16:24:42.881Z,0.90
2022-08-08T16:26:19.375Z,0.75
2022-08-08T16:28:05.007Z,0.60
2022-08-08T16:30:12.937Z,0.73
2022-08-08T16:31:49.038Z,0.60
2022-08-08T16:33:29.760Z,0.63
2022-08-08T16:35:10.513Z,0.70
2022-08-08T16:36:43.520Z,0.70
2022-08-08T16:38:26.182Z,0.60
2022-08-08T16:40:04.182Z,0.80
2022-08-08T16:41:36.037Z,0.73
2022-08-08T16:43:08.489Z,0.80
2022-08-08T16:44:40.994Z,0.70
2022-08-08T16:46:39.279Z,0.70
2022-08-08T16:48:13.285Z,0.65
2022-08-08T16:49:47.658Z,0.88
2022-08-08T16:55:01.609Z,0.80
2022-08-08T16:55:04.083Z,0.85
2022-08-08T16:55:34.385Z,0.70
2022-08-08T16:57:03.790Z,0.88
2022-08-08T16:58:36.782Z,0.80
2022-08-08T17:00:10.121Z,0.60
2022-08-08T17:01:41.738Z,0.60
2022-08-08T17:03:13.436Z,0.63
2022-08-08T17:04:47.650Z,0.80
2022-08-08T17:06:36.166Z,0.57
2022-08-08T17:08:10.854Z,0.75
2022-08-08T17:09:45.925Z,0.70
2022-08-08T17:11:28.206Z,0.70
2022-08-08T17:13:10.462Z,0.60
2022-08-08T17:14:44.043Z,0.68
2022-08-08T17:16:16.486Z,0.90
2022-08-08T17:18:03.514Z,0.73
2022-08-08T17:19:40.948Z,0.82
2022-08-08T17:21:13.679Z,0.80
2022-08-08T17:22:45.398Z,0.80
2022-08-08T17:24:36.967Z,0.82
2022-08-08T17:26:09.680Z,1.00
2022-08-08T17:27:47.375Z,1.13
2022-08-08T17:29:24.952Z,0.90
2022-08-08T17:30:56.928Z,0.98
2022-08-08T17:33:33.006Z,0.77
2022-08-08T17:34:53.108Z,1.00
2022-08-08T17:36:22.779Z,1.10
2022-08-08T17:38:03.736Z,0.98
2022-08-08T17:40:03.781Z,0.95
2022-08-08T17:41:30.592Z,0.77
2022-08-08T17:43:12.367Z,0.70
2022-08-08T17:44:44.951Z,0.85
2022-08-08T17:46:39.473Z,0.90
2022-08-08T17:48:14.697Z,0.90
2022-08-08T17:49:47.067Z,0.85
2022-08-08T17:51:21.524Z,0.70
2022-08-08T17:52:57.403Z,1.02
2022-08-08T17:54:29.382Z,0.90
2022-08-08T17:56:03.753Z,0.82
2022-08-08T17:57:39.232Z,0.90
2022-08-08T17:59:12.191Z,0.90
2022-08-08T18:00:47.517Z,0.70
2022-08-08T18:02:29.276Z,0.70
2022-08-08T18:04:01.709Z,1.02
2022-08-08T18:05:48.696Z,0.77
2022-08-08T18:08:15.622Z,0.90
2022-08-08T18:09:13.255Z,0.90
2022-08-08T18:10:46.117Z,0.80
2022-08-08T18:12:17.946Z,1.00
2022-08-08T18:13:49.571Z,0.80
2022-08-08T18:15:21.363Z,0.80
2022-08-08T18:16:55.389Z,1.00
2022-08-08T18:18:29.368Z,0.90
2022-08-08T18:20:44.538Z,0.80
2022-08-08T18:22:02.401Z,0.82
2022-08-08T18:23:36.711Z,1.00
2022-08-08T18:25:11.700Z,0.80
2022-08-08T18:26:53.856Z,0.82
2022-08-08T18:28:27.302Z,0.90
2022-08-08T18:29:58.926Z,0.98
2022-08-08T18:31:31.221Z,1.00
2022-08-08T18:33:02.803Z,0.90
2022-08-08T18:34:37.892Z,1.00
2022-08-08T18:36:22.875Z,0.88
2022-08-08T18:37:57.003Z,0.88
2022-08-08T18:39:36.579Z,0.88
2022-08-08T18:41:08.411Z,1.30
2022-08-08T18:42:45.563Z,1.05
2022-08-08T18:44:27.453Z,0.98
2022-08-08T18:46:54.719Z,1.00
2022-08-08T18:47:51.955Z,0.90
2022-08-08T18:49:24.376Z,1.00
2022-08-08T18:50:58.532Z,0.85
2022-08-08T18:52:33.882Z,0.90
2022-08-08T18:54:13.639Z,1.10
2022-08-08T18:55:55.246Z,0.90
2022-08-08T18:57:26.855Z,1.20
2022-08-08T18:58:59.415Z,1.10
2022-08-08T19:00:31.587Z,1.00
2022-08-08T19:02:26.735Z,1.10
2022-08-08T19:04:09.999Z,1.15
2022-08-08T19:05:46.622Z,1.00
2022-08-08T19:07:23.122Z,1.10
2022-08-08T19:08:54.931Z,1.15
2022-08-08T19:10:27.538Z,0.98
2022-08-08T19:11:59.240Z,0.90
2022-08-08T19:13:38.343Z,0.95
2022-08-08T19:15:26.204Z,1.02
2022-08-08T19:17:05.990Z,0.95
2022-08-08T19:18:49.733Z,1.10
2022-08-08T19:20:26.518Z,1.00
2022-08-08T19:21:58.229Z,1.00
2022-08-08T19:23:29.830Z,0.90
2022-08-08T19:25:59.787Z,1.15
2022-08-08T19:26:59.284Z,0.93
2022-08-08T19:28:31.689Z,1.00
2022-08-08T19:30:18.058Z,0.82
2022-08-08T19:31:55.873Z,1.05
2022-08-08T19:33:51.849Z,0.93
2022-08-08T19:35:25.592Z,1.00
2022-08-08T19:37:16.163Z,0.98
2022-08-08T19:38:48.325Z,0.80
2022-08-08T19:40:31.045Z,1.08
2022-08-08T19:42:05.301Z,0.90
2022-08-08T19:43:56.224Z,0.90
2022-08-08T19:45:58.829Z,0.85
2022-08-08T19:47:24.617Z,1.02
2022-08-08T19:48:57.228Z,1.30
2022-08-08T19:50:29.035Z,0.80
2022-08-08T19:52:02.864Z,1.10
2022-08-08T19:53:53.415Z,1.17
2022-08-08T19:55:26.083Z,1.00
2022-08-08T19:57:04.322Z,1.10
2022-08-08T19:58:39.278Z,1.00
2022-08-08T20:00:29.346Z,0.90
2022-08-08T20:02:04.541Z,0.82
2022-08-08T20:04:02.375Z,0.95
2022-08-08T20:06:14.400Z,0.90
2022-08-08T20:08:28.727Z,0.98
2022-08-08T20:09:12.125Z,1.10
2022-08-08T20:10:48.851Z,0.80
2022-08-08T20:12:31.998Z,0.88
2022-08-08T20:14:31.689Z,1.02
2022-08-08T20:16:00.948Z,1.10
2022-08-08T20:17:33.234Z,1.00
2022-08-08T20:19:04.991Z,1.00
2022-08-08T20:20:38.097Z,0.80
2022-08-08T20:22:26.535Z,1.00
2022-08-08T20:24:02.817Z,1.05
2022-08-08T20:25:34.878Z,1.23
2022-08-08T20:27:06.804Z,1.10
2022-08-08T20:28:40.925Z,0.98
2022-08-08T20:30:53.961Z,1.20
2022-08-08T20:32:12.897Z,0.80
2022-08-08T20:34:02.070Z,1.10
2022-08-08T20:35:59.480Z,0.82
2022-08-08T20:37:46.775Z,0.70
2022-08-08T20:39:21.075Z,0.82
2022-08-08T20:40:54.165Z,0.90
2022-08-08T20:42:28.522Z,1.10
2022-08-08T20:44:01.074Z,1.00
2022-08-08T20:45:55.039Z,0.90
2022-08-08T20:47:25.955Z,1.02
2022-08-08T20:48:58.310Z,1.00
2022-08-08T20:50:33.779Z,1.00
2022-08-08T20:52:05.546Z,0.88
2022-08-08T20:54:00.176Z,0.90
2022-08-08T20:55:29.531Z,0.98
2022-08-08T20:57:18.640Z,0.82
2022-08-08T20:58:50.528Z,1.10
2022-08-08T21:00:23.622Z,0.90
2022-08-08T21:02:06.318Z,1.00
2022-08-08T21:03:55.368Z,0.93
2022-08-08T21:07:08.200Z,0.80
2022-08-08T21:08:49.280Z,1.00
2022-08-08T21:10:21.340Z,0.90
2022-08-08T21:12:03.017Z,1.00
2022-08-08T21:13:40.924Z,0.98
2022-08-08T21:15:16.741Z,0.75
2022-08-08T21:17:06.791Z,0.90
2022-08-08T21:18:39.222Z,0.90
2022-08-08T21:20:12.818Z,1.10
2022-08-08T21:21:44.459Z,1.02
2022-08-08T21:23:18.082Z,0.90
2022-08-08T21:24:53.694Z,1.05
2022-08-08T21:26:27.356Z,0.80
2022-08-08T21:28:09.202Z,0.82
2022-08-08T21:30:04.538Z,0.80
2022-08-08T21:31:53.459Z,0.90
2022-08-08T21:33:30.670Z,0.90
2022-08-08T21:36:16.630Z,0.90
2022-08-08T21:36:58.441Z,0.85
2022-08-08T21:38:30.306Z,0.80
2022-08-08T21:40:05.083Z,0.80
2022-08-08T21:41:43.326Z,0.93
2022-08-08T21:45:44.457Z,0.80
2022-08-08T21:48:04.361Z,0.80
2022-08-08T21:48:52.027Z,0.88
2022-08-08T21:50:24.646Z,1.15
2022-08-08T21:54:22.584Z,0.70
2022-08-08T21:54:27.408Z,0.80
2022-08-08T21:57:42.010Z,0.80
2022-08-08T21:59:15.369Z,0.90
2022-08-08T22:00:47.105Z,0.90
2022-08-08T22:02:24.810Z,0.85
2022-08-08T22:03:57.899Z,1.10
2022-08-08T22:05:29.682Z,0.85
2022-08-08T22:07:01.298Z,0.80
2022-08-08T22:08:37.399Z,1.17
2022-08-08T22:10:18.108Z,0.90
2022-08-08T22:12:04.774Z,1.00
2022-08-08T22:13:47.689Z,0.90
2022-08-08T22:15:23.190Z,0.82
2022-08-08T22:17:00.822Z,1.00
2022-08-08T22:18:34.488Z,0.88
2022-08-08T22:20:11.223Z,0.90
2022-08-08T22:21:45.442Z,0.80
2022-08-08T22:23:19.301Z,0.88
2022-08-08T22:24:51.219Z,1.00
2022-08-08T22:26:30.710Z,0.90
2022-08-08T22:29:03.880Z,0.80
2022-08-08T22:29:59.429Z,0.77
2022-08-08T22:31:35.070Z,0.68
2022-08-08T22:33:22.213Z,0.70
2022-08-08T22:35:03.689Z,0.90
2022-08-08T22:36:35.474Z,0.80
2022-08-08T22:38:07.113Z,0.90
2022-08-08T22:39:51.381Z,0.90
2022-08-08T22:43:02.990Z,0.85
2022-08-08T22:44:34.546Z,1.00
2022-08-08T22:46:08.209Z,1.00
2022-08-08T22:47:49.421Z,1.10
2022-08-08T22:49:23.541Z,1.10
2022-08-08T22:50:55.986Z,0.90
2022-08-08T22:52:33.774Z,1.10
2022-08-08T22:54:30.506Z,1.13
2022-08-08T22:56:01.662Z,1.00
2022-08-08T22:57:44.207Z,1.10
2022-08-08T22:59:21.389Z,1.30
2022-08-08T23:00:54.318Z,1.20
2022-08-08T23:02:28.824Z,1.08
2022-08-08T23:04:00.745Z,0.95
2022-08-08T23:05:38.710Z,1.25
2022-08-08T23:07:51.293Z,0.90
2022-08-08T23:09:21.111Z,1.10
2022-08-08T23:11:06.394Z,1.10
2022-08-08T23:12:45.157Z,1.13
2022-08-08T23:14:18.881Z,1.23
2022-08-08T23:16:40.003Z,1.10
2022-08-08T23:19:28.031Z,1.10
2022-08-08T23:21:05.324Z,1.30
2022-08-08T23:22:39.459Z,1.25
2022-08-08T23:24:11.447Z,1.27